Time;durP1;ratioP1;P1;durP2;ratioP2;P2;SDS_P1;SDS_P2;PMS_P1;PMS_P2;Temp;Humidity;BMP_temperature;BMP_pressure;BME280_temperature;BME280_humidity;BME280_pressure;Samples;Min_cycle;Max_cycle;Signal;HPM_P1;HPM_P2
2023/09/12 11:43:55;;;;;;;12.10;11.00;;;;;;;26.56;53.45;100158.06;105348;305;692503;-58
2023/09/12 11:46:27;;;;;;;11.60;10.60;;;;;;;27.60;52.33;100150.57;107646;278;92961;-58
2023/09/12 11:49:02;;;;;;;12.90;11.20;;;;;;;28.27;50.71;100152.07;107570;278;96053;-59
2023/09/12 11:51:34;;;;;;;11.80;10.40;;;;;;;28.76;48.76;100154.84;107578;278;117657;-58
2023/09/12 11:54:09;;;;;;;12.20;11.00;;;;;;;29.10;48.33;100151.69;107650;278;105646;-58
2023/09/12 11:56:42;;;;;;;12.10;10.40;;;;;;;29.33;47.44;100148.86;106990;277;693233;-57
2023/09/12 11:59:21;;;;;;;10.70;9.70;;;;;;;29.50;46.61;100146.79;107570;277;93914;-58
2023/09/12 12:02:02;;;;;;;10.90;9.90;;;;;;;29.67;46.17;100148.13;107443;277;97972;-58
2023/09/12 12:04:40;;;;;;;11.40;10.20;;;;;;;29.85;45.80;100142.48;107501;277;117804;-58
2023/09/12 12:07:15;;;;;;;10.90;9.80;;;;;;;30.05;45.78;100136.49;107446;277;105815;-58
2023/09/12 12:09:51;;;;;;;13.40;10.20;;;;;;;30.22;45.49;100141.45;107440;277;115776;-58
2023/09/12 12:12:25;;;;;;;13.80;10.50;;;;;;;30.31;44.75;100136.33;107477;277;94227;-58
2023/09/12 12:14:58;;;;;;;12.40;10.70;;;;;;;30.27;43.65;100137.91;107470;277;95245;-58
2023/09/12 12:17:40;;;;;;;11.60;10.40;;;;;;;30.29;43.14;100132.23;107516;277;116041;-58
2023/09/12 12:20:14;;;;;;;;;;;;;;;30.32;43.06;100133.11;107466;277;103772;-59
2023/09/12 12:22:55;;;;;;;11.00;9.90;;;;;;;30.30;42.87;100135.80;107510;277;114240;-56
2023/09/12 12:25:33;;;;;;;12.00;10.80;;;;;;;30.29;42.58;100135.90;107487;277;95290;-57
2023/09/12 12:28:14;;;;;;;11.60;10.60;;;;;;;30.28;42.34;100136.80;107466;277;96798;-59
2023/09/12 12:30:53;;;;;;;12.10;9.80;;;;;;;30.31;42.26;100137.34;107455;277;117980;-63
2023/09/12 12:33:25;;;;;;;11.60;10.60;;;;;;;30.31;42.06;100133.50;107592;277;105854;-61
2023/09/12 12:36:04;;;;;;;11.80;10.20;;;;;;;30.30;42.50;100131.12;107540;277;114777;-60
2023/09/12 12:38:40;;;;;;;13.80;10.90;;;;;;;30.37;42.53;100134.02;107523;277;93880;-58
2023/09/12 12:41:14;;;;;;;11.20;10.10;;;;;;;30.38;42.39;100134.30;107550;277;96621;-59
2023/09/12 12:43:49;;;;;;;11.10;10.10;;;;;;;30.35;42.46;100133.71;107509;277;118442;-60
2023/09/12 12:46:25;;;;;;;11.80;10.30;;;;;;;30.27;41.95;100125.61;107502;277;104731;-59
2023/09/12 12:49:01;;;;;;;11.70;10.30;;;;;;;30.27;41.68;100126.27;107495;277;114372;-55
2023/09/12 12:51:45;;;;;;;12.40;10.20;;;;;;;30.30;41.55;100126.22;107463;277;94545;-55
2023/09/12 12:54:16;;;;;;;11.30;10.20;;;;;;;30.29;41.51;100124.41;107489;277;98026;-60
2023/09/12 12:56:55;;;;;;;12.00;10.90;;;;;;;30.26;41.72;100126.05;107446;277;117471;-59
2023/09/12 12:59:36;;;;;;;11.50;10.30;;;;;;;30.27;41.61;100126.32;107469;277;104453;-57
2023/09/12 13:02:12;;;;;;;11.50;10.30;;;;;;;30.15;41.39;100123.80;107463;277;115249;-57
2023/09/12 13:04:54;;;;;;;12.90;10.60;;;;;;;30.09;41.32;100119.67;107472;277;93566;-55
2023/09/12 13:07:31;;;;;;;11.20;10.00;;;;;;;30.08;41.79;100119.75;107523;277;97776;-56
2023/09/12 13:10:08;;;;;;;11.40;10.40;;;;;;;30.03;41.97;100119.99;107710;275;118065;-55
2023/09/12 13:12:40;;;;;;;13.70;10.60;;;;;;;29.96;41.75;100117.52;107521;275;104499;-57
2023/09/12 13:15:19;;;;;;;11.50;10.40;;;;;;;29.94;41.84;100117.27;107752;275;114196;-57
2023/09/12 13:17:54;;;;;;;12.00;10.30;;;;;;;29.93;42.01;100116.96;107728;275;93903;-58
2023/09/12 13:20:30;;;;;;;11.40;10.40;;;;;;;29.85;42.05;100116.52;107731;275;96845;-55
2023/09/12 13:23:15;;;;;;;10.90;9.80;;;;;;;29.80;42.03;100114.59;107708;275;118586;-59
2023/09/12 13:25:57;;;;;;;10.70;9.80;;;;;;;29.78;42.18;100116.02;107709;275;104811;-57
2023/09/12 13:28:34;;;;;;;12.90;11.00;;;;;;;29.79;42.22;100110.86;107664;275;114115;-54
2023/09/12 13:31:12;;;;;;;11.80;10.60;;;;;;;29.74;41.85;100112.61;107734;275;94812;-57
2023/09/12 13:33:46;;;;;;;12.10;10.60;;;;;;;29.65;41.49;100109.15;107629;275;99437;-57
2023/09/12 13:36:21;;;;;;;12.30;11.30;;;;;;;29.58;41.27;100111.31;107670;275;119028;-59
2023/09/12 13:38:55;;;;;;;12.50;11.30;;;;;;;29.49;41.03;100113.35;107710;275;104572;-57
2023/09/12 13:41:31;;;;;;;11.80;10.70;;;;;;;29.43;40.90;100116.98;107662;275;112190;-58
2023/09/12 13:44:09;;;;;;;11.40;10.30;;;;;;;29.40;40.89;100115.51;107572;275;93359;-58
2023/09/12 13:46:47;;;;;;;11.80;10.40;;;;;;;29.36;41.25;100117.41;107708;275;96988;-59
2023/09/12 13:49:22;;;;;;;11.60;10.60;;;;;;;29.24;41.49;100117.61;107658;275;117326;-58
2023/09/12 13:51:58;;;;;;;12.10;10.90;;;;;;;29.06;41.51;100118.33;107629;275;105276;-57
2023/09/12 13:54:32;;;;;;;12.20;10.00;;;;;;;28.90;41.61;100116.84;107698;275;112597;-58
2023/09/12 13:57:13;;;;;;;12.10;11.00;;;;;;;28.76;41.76;100118.48;107699;275;94290;-58
2023/09/12 13:59:48;;;;;;;11.90;10.80;;;;;;;28.66;42.24;100118.52;107713;275;96317;-58
2023/09/12 14:02:27;;;;;;;15.20;11.60;;;;;;;28.56;42.68;100122.09;107693;275;118260;-57
2023/09/12 14:05:00;;;;;;;12.00;10.90;;;;;;;28.44;42.97;100115.16;107745;275;106041;-58
2023/09/12 14:07:41;;;;;;;11.00;10.00;;;;;;;28.29;43.48;100115.67;107765;275;114051;-59
2023/09/12 14:10:17;;;;;;;12.20;10.90;;;;;;;28.22;44.30;100117.70;107541;275;93073;-59
2023/09/12 14:12:50;;;;;;;12.30;10.90;;;;;;;28.12;45.10;100116.17;107770;275;97979;-60
2023/09/12 14:15:26;;;;;;;12.70;11.60;;;;;;;28.01;45.99;100112.52;107726;275;118267;-59
2023/09/12 14:18:01;;;;;;;12.00;10.90;;;;;;;27.86;46.77;100111.23;107687;275;105988;-56
2023/09/12 14:20:43;;;;;;;12.10;11.00;;;;;;;27.68;47.19;100109.00;107563;275;114492;-58
2023/09/12 14:23:16;;;;;;;12.30;11.20;;;;;;;27.53;47.72;100113.46;107636;272;93647;-57
2023/09/12 14:25:55;;;;;;;12.70;10.30;;;;;;;27.39;47.99;100118.64;107653;275;97136;-57
2023/09/12 14:28:34;;;;;;;12.40;11.20;;;;;;;27.25;48.40;100117.42;107650;275;117240;-58
2023/09/12 14:31:13;;;;;;;12.60;11.40;;;;;;;27.18;48.97;100122.89;107691;275;104888;-58
2023/09/12 14:33:44;;;;;;;12.50;11.30;;;;;;;27.08;49.24;100125.18;107617;275;112670;-61
2023/09/12 14:36:20;;;;;;;12.20;11.10;;;;;;;26.99;49.84;100125.40;107679;275;93505;-60
2023/09/12 14:38:52;;;;;;;12.30;11.10;;;;;;;26.93;50.13;100127.83;107699;275;97773;-57
2023/09/12 14:41:28;;;;;;;12.10;11.10;;;;;;;26.91;50.47;100125.48;107706;275;117216;-58
2023/09/12 14:44:07;;;;;;;13.00;11.80;;;;;;;26.84;50.99;100127.10;107770;275;104723;-58
2023/09/12 14:46:39;;;;;;;12.80;11.60;;;;;;;26.80;51.14;100121.86;107719;275;113675;-58
2023/09/12 14:49:13;;;;;;;13.00;11.60;;;;;;;26.82;50.91;100123.14;107730;275;93617;-56
2023/09/12 14:51:47;;;;;;;12.60;11.40;;;;;;;26.87;50.65;100123.38;107741;275;97602;-57
2023/09/12 14:54:28;;;;;;;12.90;11.70;;;;;;;26.87;50.89;100123.45;107749;275;116976;-56
2023/09/12 14:57:09;;;;;;;12.90;11.40;;;;;;;26.80;50.88;100123.01;107696;275;104976;-55
2023/09/12 14:59:48;;;;;;;13.10;11.80;;;;;;;26.76;50.76;100123.09;107682;276;112070;-57
2023/09/12 15:02:23;;;;;;;12.60;11.20;;;;;;;26.72;50.76;100125.65;107719;276;94804;-55
2023/09/12 15:04:57;;;;;;;13.40;12.00;;;;;;;26.66;51.06;100127.64;107673;276;97581;-54
2023/09/12 15:07:32;;;;;;;13.10;11.80;;;;;;;26.63;51.08;100130.42;107692;276;117001;-58
2023/09/12 15:10:08;;;;;;;12.70;11.60;;;;;;;26.56;51.31;100133.35;107872;275;105244;-57
2023/09/12 15:12:42;;;;;;;13.00;11.80;;;;;;;26.48;51.59;100128.48;107849;275;115091;-56
2023/09/12 15:15:15;;;;;;;12.90;11.50;;;;;;;26.42;51.85;100126.86;107841;275;93776;-57
2023/09/12 15:17:50;;;;;;;12.70;11.30;;;;;;;26.38;52.00;100126.69;107877;275;97542;-59
2023/09/12 15:20:23;;;;;;;13.90;11.50;;;;;;;26.33;52.29;100126.05;107785;272;118899;-60
2023/09/12 15:23:04;;;;;;;13.00;11.30;;;;;;;26.28;52.38;100125.30;107662;272;104358;-56
2023/09/12 15:25:44;;;;;;;13.20;11.90;;;;;;;26.25;52.65;100124.06;107495;276;115175;-56
2023/09/12 15:28:24;;;;;;;16.60;11.30;;;;;;;26.21;52.79;100125.78;107694;276;94532;-58
2023/09/12 15:31:02;;;;;;;12.80;11.20;;;;;;;26.18;52.94;100126.51;107682;273;97428;-58
2023/09/12 15:33:38;;;;;;;12.50;11.20;;;;;;;26.11;53.25;100124.30;107708;276;117809;-59
2023/09/12 15:36:20;;;;;;;12.90;11.60;;;;;;;26.04;53.65;100123.23;107762;276;104661;-59
2023/09/12 15:39:06;;;;;;;15.80;11.70;;;;;;;25.96;53.70;100125.23;107666;276;114357;-56
2023/09/12 15:41:42;;;;;;;14.10;12.60;;;;;;;25.90;53.83;100123.86;107638;276;94751;-56
2023/09/12 15:44:25;;;;;;;13.90;12.50;;;;;;;25.82;54.27;100122.52;107784;276;96660;-55
2023/09/12 15:47:23;;;;;;;12.80;11.70;;;;;;;25.75;54.46;100125.44;107429;276;117805;-55
2023/09/12 15:50:17;;;;;;;14.10;11.80;;;;;;;25.67;54.82;100119.67;107959;276;104452;-58
2023/09/12 15:52:57;;;;;;;13.10;12.00;;;;;;;25.60;55.21;100119.86;107471;276;113896;-56
2023/09/12 15:55:30;;;;;;;13.80;12.00;;;;;;;25.53;55.36;100121.45;107628;276;92706;-56
2023/09/12 15:58:08;;;;;;;13.40;12.10;;;;;;;25.45;55.62;100120.14;107418;276;95946;-58
2023/09/12 16:00:45;;;;;;;13.00;11.80;;;;;;;25.36;55.87;100118.90;109036;276;118591;-58
2023/09/12 16:03:22;;;;;;;12.50;11.10;;;;;;;25.29;56.15;100122.13;107509;276;104152;-57
2023/09/12 16:06:03;;;;;;;13.00;11.80;;;;;;;25.20;56.34;100127.85;107668;276;115231;-58
2023/09/12 16:08:48;;;;;;;13.90;12.40;;;;;;;25.09;56.52;100126.81;107848;276;94035;-57
2023/09/12 16:11:27;;;;;;;13.70;12.40;;;;;;;24.98;56.57;100132.29;107448;276;97095;-57
2023/09/12 16:14:04;;;;;;;13.80;12.40;;;;;;;24.85;56.72;100130.42;107524;276;120680;-58
2023/09/12 16:16:35;;;;;;;12.80;11.60;;;;;;;24.72;57.11;100132.98;107562;276;105276;-58
2023/09/12 16:19:18;;;;;;;13.30;12.10;;;;;;;24.62;57.48;100128.42;107491;276;113597;-59
2023/09/12 16:21:55;;;;;;;13.40;12.10;;;;;;;24.50;57.80;100130.23;107545;276;93363;-59
2023/09/12 16:24:29;;;;;;;14.00;12.70;;;;;;;24.38;58.04;100127.65;107555;273;95478;-58
2023/09/12 16:27:16;;;;;;;13.40;12.20;;;;;;;24.27;58.42;100130.71;107519;276;120125;-59
2023/09/12 16:29:51;;;;;;;13.20;12.00;;;;;;;24.15;58.71;100130.73;107494;276;104728;-59
2023/09/12 16:32:25;;;;;;;;;;;;;;;24.06;58.93;100132.68;107519;276;113064;-60
2023/09/12 16:35:04;;;;;;;14.70;13.30;;;;;;;23.92;59.31;100131.92;107476;276;94120;-59
2023/09/12 16:37:37;;;;;;;13.30;12.00;;;;;;;23.81;59.85;100132.20;107491;276;98446;-57
2023/09/12 16:40:14;;;;;;;13.90;12.70;;;;;;;23.75;59.84;100132.83;107474;278;117897;-59
2023/09/12 16:42:53;;;;;;;13.80;12.40;;;;;;;23.66;60.13;100134.41;107494;276;106086;-59
2023/09/12 16:45:29;;;;;;;15.30;13.80;;;;;;;23.51;60.43;100131.10;107441;276;113469;-59
2023/09/12 16:48:06;;;;;;;14.50;12.50;;;;;;;23.37;60.80;100134.20;107422;278;96763;-60
2023/09/12 16:50:45;;;;;;;13.70;11.80;;;;;;;23.28;61.02;100134.26;107449;278;97476;-60
2023/09/12 16:53:22;;;;;;;14.30;13.00;;;;;;;23.18;61.08;100133.68;107506;278;119718;-54
2023/09/12 16:55:58;;;;;;;13.70;12.30;;;;;;;23.07;61.22;100136.23;107509;278;104113;-53
2023/09/12 16:58:37;;;;;;;13.10;12.00;;;;;;;23.00;61.71;100134.92;107452;278;114152;-58
2023/09/12 17:01:26;;;;;;;15.70;14.20;;;;;;;22.89;61.73;100137.73;107479;278;93555;-59
2023/09/12 17:04:06;;;;;;;15.30;13.60;;;;;;;22.77;62.04;100138.36;107460;278;98183;-58
2023/09/12 17:06:41;;;;;;;14.60;13.20;;;;;;;22.70;62.46;100138.29;107457;278;117190;-58
2023/09/12 17:09:16;;;;;;;14.60;12.80;;;;;;;22.65;62.85;100137.14;107468;278;104083;-57
2023/09/12 17:11:57;;;;;;;14.30;13.00;;;;;;;22.58;63.21;100141.67;107496;278;113346;-58
2023/09/12 17:14:38;;;;;;;15.60;14.00;;;;;;;22.46;63.72;100144.85;107547;278;96380;-59
2023/09/12 17:17:21;;;;;;;14.40;12.90;;;;;;;22.37;63.84;100147.69;107476;278;96443;-58
2023/09/12 17:20:02;;;;;;;14.50;13.00;;;;;;;22.28;64.04;100147.84;107445;278;120021;-58
2023/09/12 17:22:43;;;;;;;15.20;13.70;;;;;;;22.20;64.40;100143.92;107527;278;105667;-58
2023/09/12 17:25:26;;;;;;;14.70;13.30;;;;;;;22.13;64.86;100147.70;107457;278;113716;-59
2023/09/12 17:28:06;;;;;;;15.70;13.60;;;;;;;22.08;65.19;100144.66;107426;278;96964;-58
2023/09/12 17:30:44;;;;;;;18.10;14.10;;;;;;;22.06;65.33;100145.64;107438;278;96231;-58
2023/09/12 17:33:19;;;;;;;18.10;14.10;;;;;;;22.03;65.41;100147.23;107449;278;120250;-57
2023/09/12 17:35:51;;;;;;;15.50;13.40;;;;;;;21.99;65.54;100152.17;107426;278;105489;-59
2023/09/12 17:38:25;;;;;;;15.90;14.20;;;;;;;21.92;65.58;100151.42;107526;278;114220;-55
2023/09/12 17:41:02;;;;;;;16.10;14.50;;;;;;;21.90;65.90;100153.34;107470;278;94783;-58
2023/09/12 17:43:40;;;;;;;17.30;13.90;;;;;;;21.86;66.21;100153.09;107479;278;97679;-58
2023/09/12 17:46:16;;;;;;;16.30;13.70;;;;;;;21.81;66.46;100158.00;107532;278;119556;-59
2023/09/12 17:48:50;;;;;;;19.00;14.30;;;;;;;21.75;66.41;100159.64;107489;278;104282;-57
2023/09/12 17:51:35;;;;;;;21.00;13.60;;;;;;;21.71;66.38;100159.51;107467;278;112791;-59
2023/09/12 17:54:16;;;;;;;19.30;15.20;;;;;;;21.64;66.18;100161.89;107529;278;93606;-57
2023/09/12 17:56:51;;;;;;;21.00;14.90;;;;;;;21.58;66.49;100163.13;107506;278;98062;-55
2023/09/12 17:59:26;;;;;;;17.10;15.30;;;;;;;21.52;66.73;100161.11;107443;278;119043;-54
2023/09/12 18:02:05;;;;;;;19.80;15.20;;;;;;;21.43;67.02;100160.45;107484;278;105202;-54
2023/09/12 18:04:39;;;;;;;22.80;15.10;;;;;;;21.35;66.96;100164.37;107460;278;115202;-56
2023/09/12 18:07:22;;;;;;;22.40;14.90;;;;;;;21.27;67.23;100166.90;107400;278;96378;-56
2023/09/12 18:09:56;;;;;;;15.80;14.20;;;;;;;21.20;67.38;100169.61;107432;278;97188;-57
2023/09/12 18:12:30;;;;;;;18.20;15.00;;;;;;;21.09;67.77;100174.45;107465;278;119486;-56
2023/09/12 18:15:05;;;;;;;21.70;15.60;;;;;;;21.02;67.83;100175.38;107410;278;103983;-57
2023/09/12 18:17:42;;;;;;;18.70;15.30;;;;;;;20.96;67.71;100173.78;107396;279;114062;-59
2023/09/12 18:20:25;;;;;;;22.10;16.10;;;;;;;20.87;68.02;100175.48;107419;278;94164;-58
2023/09/12 18:23:00;;;;;;;19.50;16.80;;;;;;;20.79;68.16;100175.36;107472;278;96628;-55
2023/09/12 18:25:31;;;;;;;18.20;15.80;;;;;;;20.72;68.36;100175.98;107471;277;119302;-56
2023/09/12 18:28:10;;;;;;;20.40;16.00;;;;;;;20.63;68.61;100171.85;107443;277;106154;-56
2023/09/12 18:30:49;;;;;;;20.10;16.10;;;;;;;20.53;68.89;100175.48;107416;277;113707;-57
2023/09/12 18:33:33;;;;;;;19.00;15.80;;;;;;;20.46;69.17;100174.53;107496;277;95946;-56
2023/09/12 18:36:10;;;;;;;19.80;16.50;;;;;;;20.36;69.34;100177.08;107517;277;97573;-57
2023/09/12 18:38:55;;;;;;;20.70;16.30;;;;;;;20.29;69.53;100178.16;107544;277;119632;-54
2023/09/12 18:41:34;;;;;;;18.30;16.20;;;;;;;20.27;69.68;100179.60;107459;277;105235;-57
2023/09/12 18:44:07;;;;;;;19.70;16.10;;;;;;;20.22;69.90;100178.21;107465;277;114447;-59
2023/09/12 18:46:49;;;;;;;19.20;16.90;;;;;;;20.15;70.10;100176.27;107480;277;93625;-59
2023/09/12 18:49:29;;;;;;;18.10;15.90;;;;;;;20.08;70.20;100176.57;107441;277;97957;-58
2023/09/12 18:52:01;;;;;;;19.40;16.90;;;;;;;20.00;70.33;100178.84;107444;277;118011;-58
2023/09/12 18:54:36;;;;;;;25.10;17.20;;;;;;;19.93;70.52;100175.12;107477;277;106152;-58
2023/09/12 18:57:16;;;;;;;19.80;17.40;;;;;;;19.89;70.76;100175.35;107461;277;113719;-59
2023/09/12 18:59:53;;;;;;;19.60;16.50;;;;;;;19.85;70.85;100177.16;107472;277;97236;-55
2023/09/12 19:02:29;;;;;;;17.40;15.00;;;;;;;19.78;71.19;100174.99;107482;277;97727;-59
2023/09/12 19:05:04;;;;;;;18.30;16.30;;;;;;;19.74;71.39;100174.29;107409;277;119268;-59
2023/09/12 19:07:47;;;;;;;19.40;15.90;;;;;;;19.72;71.52;100173.15;107472;277;105448;-58
2023/09/12 19:10:24;;;;;;;18.20;16.10;;;;;;;19.70;71.84;100172.46;107523;277;114445;-60
2023/09/12 19:12:57;;;;;;;17.60;14.70;;;;;;;19.62;72.04;100167.34;107488;278;97414;-55
2023/09/12 19:15:32;;;;;;;19.40;16.50;;;;;;;19.59;72.34;100168.43;107542;279;97932;-57
2023/09/12 19:18:06;;;;;;;21.60;15.60;;;;;;;19.57;72.34;100167.39;107488;277;119350;-59
2023/09/12 19:20:42;;;;;;;19.50;16.50;;;;;;;19.52;72.36;100166.27;107459;277;106604;-58
2023/09/12 19:23:13;;;;;;;21.20;16.60;;;;;;;19.49;72.62;100166.11;107450;277;113946;-60
2023/09/12 19:25:48;;;;;;;19.00;16.00;;;;;;;19.45;72.77;100167.98;107491;277;99709;-58
2023/09/12 19:28:28;;;;;;;20.70;16.80;;;;;;;19.39;72.84;100166.06;107515;277;97270;-59
2023/09/12 19:31:06;;;;;;;17.60;15.60;;;;;;;19.37;73.21;100166.19;107408;277;118323;-59
2023/09/12 19:33:44;;;;;;;17.30;15.70;;;;;;;19.33;73.04;100164.81;107506;277;105926;-54
2023/09/12 19:36:26;;;;;;;20.00;16.20;;;;;;;19.30;73.33;100163.02;107410;277;114346;-53
2023/09/12 19:39:06;;;;;;;18.60;16.30;;;;;;;19.29;73.75;100162.73;107456;277;97314;-58
2023/09/12 19:41:42;;;;;;;18.60;16.50;;;;;;;19.27;73.84;100159.63;107440;277;96298;-57
2023/09/12 19:44:23;;;;;;;21.30;17.10;;;;;;;19.20;74.05;100163.19;107456;277;120222;-57
2023/09/12 19:47:00;;;;;;;21.30;17.00;;;;;;;19.14;74.39;100164.44;107422;277;105378;-55
2023/09/12 19:49:40;;;;;;;17.90;16.10;;;;;;;19.11;74.42;100167.89;107430;277;114137;-56
2023/09/12 19:52:15;;;;;;;18.30;16.40;;;;;;;19.03;74.68;100169.36;107505;277;94409;-55
2023/09/12 19:54:58;;;;;;;18.60;16.70;;;;;;;19.02;74.85;100169.44;107507;277;97606;-54
2023/09/12 19:57:35;;;;;;;18.70;16.80;;;;;;;18.97;74.84;100172.14;106945;277;743077;-59
2023/09/12 20:00:10;;;;;;;18.10;16.10;;;;;;;18.94;74.81;100171.88;107474;277;104609;-59
2023/09/12 20:02:48;;;;;;;18.30;16.50;;;;;;;18.90;74.92;100171.00;107502;277;114001;-57
2023/09/12 20:05:22;;;;;;;17.00;15.20;;;;;;;18.86;75.05;100176.28;107547;277;96764;-54
2023/09/12 20:07:54;;;;;;;20.90;16.50;;;;;;;18.83;75.10;100176.74;107494;277;98491;-57
2023/09/12 20:10:34;;;;;;;18.70;16.80;;;;;;;18.80;75.18;100174.34;107448;277;119837;-57
2023/09/12 20:13:19;;;;;;;18.70;15.80;;;;;;;18.76;75.37;100180.23;107591;277;106634;-58
2023/09/12 20:15:57;;;;;;;18.50;16.30;;;;;;;18.73;75.16;100177.95;107492;277;114393;-58
2023/09/12 20:18:37;;;;;;;18.90;16.90;;;;;;;18.66;75.27;100179.23;107371;277;94860;-56
2023/09/12 20:21:20;;;;;;;20.40;16.00;;;;;;;18.60;75.57;100181.16;107448;277;97917;-55
2023/09/12 20:24:07;;;;;;;18.40;16.60;;;;;;;18.61;75.55;100180.10;107397;277;119707;-53
2023/09/12 20:26:46;;;;;;;17.80;16.00;;;;;;;18.60;75.50;100181.37;107392;277;105283;-54
2023/09/12 20:29:29;;;;;;;19.00;16.00;;;;;;;18.61;75.50;100181.23;107429;277;113638;-54
2023/09/12 20:32:00;;;;;;;19.60;16.90;;;;;;;18.57;75.63;100176.72;107389;277;94558;-56
2023/09/12 20:34:42;;;;;;;20.60;17.60;;;;;;;18.51;75.80;100174.20;107469;277;96631;-54
2023/09/12 20:37:35;;;;;;;18.20;16.30;;;;;;;18.48;75.93;100174.09;107496;277;118932;-54
2023/09/12 20:40:11;;;;;;;19.90;16.90;;;;;;;18.43;75.80;100177.80;107489;277;105714;-56
2023/09/12 20:42:47;;;;;;;17.90;16.00;;;;;;;18.35;75.89;100175.14;107489;277;113876;-56
2023/09/12 20:45:31;;;;;;;19.80;17.60;;;;;;;18.29;76.27;100176.95;107477;277;97679;-56
2023/09/12 20:48:15;;;;;;;18.10;15.90;;;;;;;18.26;76.42;100176.45;107516;277;96746;-56
2023/09/12 20:50:54;;;;;;;21.10;16.20;;;;;;;18.26;76.41;100177.78;107492;277;118927;-54
2023/09/12 20:53:28;;;;;;;19.80;15.70;;;;;;;18.26;76.36;100180.08;107514;277;105319;-56
2023/09/12 20:56:00;;;;;;;21.00;17.30;;;;;;;18.22;76.64;100181.85;107471;277;115100;-57
2023/09/12 20:58:38;;;;;;;;;;;;;;;18.20;76.77;100182.46;107446;277;96774;-57
2023/09/12 21:01:16;;;;;;;18.60;16.60;;;;;;;18.18;76.83;100181.55;107470;277;97857;-58
2023/09/12 21:03:54;;;;;;;18.80;16.90;;;;;;;18.15;76.80;100182.48;107536;277;119484;-60
2023/09/12 21:06:30;;;;;;;18.30;16.50;;;;;;;18.10;76.91;100182.17;107468;277;105763;-59
2023/09/12 21:09:05;;;;;;;18.60;16.90;;;;;;;18.05;76.96;100182.61;107425;277;114827;-56
2023/09/12 21:11:39;;;;;;;18.70;16.80;;;;;;;18.03;77.17;100185.18;107394;277;95454;-57
2023/09/12 21:14:13;;;;;;;19.10;17.00;;;;;;;17.98;77.21;100181.48;107476;277;98564;-56
2023/09/12 21:16:48;;;;;;;18.10;16.00;;;;;;;17.95;77.27;100180.05;107451;277;119499;-54
2023/09/12 21:19:41;;;;;;;18.50;16.60;;;;;;;17.92;77.36;100178.80;107445;277;103980;-58
2023/09/12 21:22:18;;;;;;;19.40;17.60;;;;;;;17.91;77.40;100177.67;107469;277;114333;-56
2023/09/12 21:24:51;;;;;;;;;;;;;;;17.92;77.55;100179.18;107491;277;98196;-59
2023/09/12 21:27:37;;;;;;;20.50;17.80;;;;;;;17.90;77.51;100178.64;107504;277;98018;-57
2023/09/12 21:30:14;;;;;;;19.30;17.30;;;;;;;17.85;77.53;100177.70;107752;277;119833;-59
2023/09/12 21:32:54;;;;;;;18.50;16.70;;;;;;;17.81;77.61;100178.61;107528;277;104028;-56
2023/09/12 21:35:33;;;;;;;18.40;16.30;;;;;;;17.80;77.72;100179.62;107460;277;115220;-56
2023/09/12 21:38:08;;;;;;;19.80;17.70;;;;;;;17.74;77.85;100177.16;107461;277;97229;-57
2023/09/12 21:40:59;;;;;;;21.20;18.00;;;;;;;17.74;77.65;100178.85;107441;277;96836;-57
2023/09/12 21:44:04;;;;;;;21.80;18.60;;;;;;;17.68;78.01;100177.86;107425;277;117646;-59
2023/09/12 21:46:57;;;;;;;18.90;17.00;;;;;;;17.67;77.96;100176.30;107440;277;103991;-58
2023/09/12 21:49:30;;;;;;;20.50;17.00;;;;;;;17.64;78.05;100175.73;107467;277;112293;-58
2023/09/12 21:52:38;;;;;;;21.00;18.50;;;;;;;17.61;78.07;100176.38;107477;277;96736;-56
2023/09/12 21:55:15;;;;;;;19.40;16.70;;;;;;;17.57;78.02;100176.41;107424;277;97997;-57
2023/09/12 21:57:57;;;;;;;19.50;17.40;;;;;;;17.53;78.30;100177.04;107489;277;120027;-55
2023/09/12 22:00:43;;;;;;;21.60;19.30;;;;;;;17.49;78.25;100177.63;107445;277;104899;-55
2023/09/12 22:03:23;;;;;;;19.00;16.30;;;;;;;17.46;78.60;100178.37;107468;277;114261;-57
2023/09/12 22:05:59;;;;;;;19.10;17.10;;;;;;;17.44;78.58;100177.52;107457;277;94592;-55
2023/09/12 22:08:40;;;;;;;19.60;17.60;;;;;;;17.44;78.68;100177.67;107482;277;97192;-57
2023/09/12 22:11:39;;;;;;;18.50;16.60;;;;;;;17.42;78.69;100179.83;107404;277;119456;-56
2023/09/12 22:14:13;;;;;;;20.60;18.00;;;;;;;17.39;78.99;100176.36;107460;277;105247;-55
2023/09/12 22:17:08;;;;;;;19.20;17.30;;;;;;;17.37;78.98;100177.23;107420;277;114842;-56
2023/09/12 22:20:02;;;;;;;20.30;18.10;;;;;;;17.33;79.13;100178.52;107410;277;96146;-53
2023/09/12 22:22:44;;;;;;;19.30;17.20;;;;;;;17.32;79.22;100180.02;107461;277;99424;-58
2023/09/12 22:25:15;;;;;;;19.00;17.20;;;;;;;17.30;79.17;100182.88;107422;277;118708;-60
2023/09/12 22:28:00;;;;;;;19.10;17.30;;;;;;;17.28;79.23;100183.59;107501;277;105874;-53
2023/09/12 22:30:32;;;;;;;21.00;17.20;;;;;;;17.23;79.44;100181.84;107430;277;114021;-53
2023/09/12 22:33:11;;;;;;;19.70;17.70;;;;;;;17.19;79.43;100183.41;107491;277;95058;-58
2023/09/12 22:35:54;;;;;;;20.00;16.80;;;;;;;17.15;79.45;100182.14;107596;277;97481;-58
2023/09/12 22:38:39;;;;;;;19.80;17.80;;;;;;;17.10;79.68;100178.27;107490;277;117514;-54
2023/09/12 22:41:12;;;;;;;20.90;17.40;;;;;;;17.08;79.91;100180.79;107535;277;104263;-55
2023/09/12 22:43:46;;;;;;;20.50;18.20;;;;;;;17.09;80.15;100181.40;107474;277;115103;-54
2023/09/12 22:46:24;;;;;;;20.60;18.40;;;;;;;17.08;80.16;100189.77;107455;277;95388;-55
2023/09/12 22:49:01;;;;;;;20.70;18.10;;;;;;;17.06;80.28;100188.77;107522;277;96417;-58
2023/09/12 22:51:47;;;;;;;24.10;19.20;;;;;;;17.04;80.39;100187.34;107452;277;118333;-60
2023/09/12 22:54:27;;;;;;;21.40;19.20;;;;;;;16.99;80.37;100189.30;107433;277;105232;-56
2023/09/12 22:57:01;;;;;;;20.10;18.00;;;;;;;16.97;80.43;100189.35;107422;277;115051;-55
2023/09/12 22:59:41;;;;;;;22.50;19.70;;;;;;;16.95;80.43;100188.20;107446;277;96147;-56
2023/09/12 23:02:14;;;;;;;20.90;18.60;;;;;;;16.94;80.52;100187.71;107389;277;97277;-58
2023/09/12 23:05:03;;;;;;;21.50;19.20;;;;;;;16.93;80.65;100188.06;107477;277;119924;-58
2023/09/12 23:08:16;;;;;;;24.60;19.80;;;;;;;16.89;80.70;100189.04;107428;277;105050;-55
2023/09/12 23:11:01;;;;;;;21.50;19.30;;;;;;;16.85;80.86;100191.39;107452;277;113368;-56
2023/09/12 23:13:43;;;;;;;21.80;19.70;;;;;;;16.81;80.78;100188.35;107380;277;95436;-55
2023/09/12 23:16:22;;;;;;;19.50;17.50;;;;;;;16.77;80.94;100181.66;107425;277;97412;-54
2023/09/12 23:19:00;;;;;;;22.80;19.30;;;;;;;16.77;80.87;100182.50;107461;277;119171;-57
2023/09/12 23:21:39;;;;;;;19.60;17.60;;;;;;;16.78;81.09;100183.37;107427;277;107309;-57
2023/09/12 23:24:36;;;;;;;20.20;18.20;;;;;;;16.76;81.14;100180.74;107511;277;113631;-59
2023/09/12 23:27:07;;;;;;;20.50;18.60;;;;;;;16.75;81.18;100179.75;107475;277;97329;-59
2023/09/12 23:30:01;;;;;;;19.60;17.70;;;;;;;16.72;81.10;100177.39;107446;277;96367;-56
2023/09/12 23:32:44;;;;;;;21.70;18.00;;;;;;;16.72;81.19;100179.67;107461;277;118260;-54
2023/09/12 23:35:20;;;;;;;20.50;18.40;;;;;;;16.72;81.17;100180.05;107486;277;105607;-55
2023/09/12 23:37:58;;;;;;;20.90;18.70;;;;;;;16.70;81.27;100176.66;107413;277;113407;-57
2023/09/12 23:40:39;;;;;;;21.60;18.30;;;;;;;16.66;81.28;100177.27;107462;277;95448;-56